sensor_id;sensor_type;location;lat;lon;timestamp;P1;durP1;ratioP1;P2;durP2;ratioP2
59074;SDS011;44860;53.020;6.738;2023-04-03T00:00:49;2.13;;;1.33;;
59074;SDS011;44860;53.020;6.738;2023-04-03T00:03:15;2.65;;;0.90;;
59074;SDS011;44860;53.020;6.738;2023-04-03T00:05:45;4.47;;;1.50;;
59074;SDS011;44860;53.020;6.738;2023-04-03T00:08:11;4.07;;;1.35;;
59074;SDS011;44860;53.020;6.738;2023-04-03T00:10:37;3.15;;;1.27;;
59074;SDS011;44860;53.020;6.738;2023-04-03T00:13:03;2.97;;;1.27;;
59074;SDS011;44860;53.020;6.738;2023-04-03T00:15:30;3.60;;;1.30;;
59074;SDS011;44860;53.020;6.738;2023-04-03T00:17:56;4.85;;;1.38;;
59074;SDS011;44860;53.020;6.738;2023-04-03T00:20:22;3.22;;;1.42;;
59074;SDS011;44860;53.020;6.738;2023-04-03T00:22:47;2.70;;;1.40;;
59074;SDS011;44860;53.020;6.738;2023-04-03T00:25:13;2.55;;;1.35;;
59074;SDS011;44860;53.020;6.738;2023-04-03T00:27:39;2.38;;;1.40;;
59074;SDS011;44860;53.020;6.738;2023-04-03T00:30:06;2.20;;;1.23;;
59074;SDS011;44860;53.020;6.738;2023-04-03T00:32:35;4.10;;;1.50;;
59074;SDS011;44860;53.020;6.738;2023-04-03T00:35:00;3.15;;;1.48;;
59074;SDS011;44860;53.020;6.738;2023-04-03T00:37:26;2.78;;;1.20;;
59074;SDS011;44860;53.020;6.738;2023-04-03T00:39:52;1.98;;;1.25;;
59074;SDS011;44860;53.020;6.738;2023-04-03T00:42:17;3.03;;;1.30;;
59074;SDS011;44860;53.020;6.738;2023-04-03T00:47:11;4.13;;;1.73;;
59074;SDS011;44860;53.020;6.738;2023-04-03T00:49:39;2.65;;;1.30;;
59074;SDS011;44860;53.020;6.738;2023-04-03T00:52:06;4.55;;;1.50;;
59074;SDS011;44860;53.020;6.738;2023-04-03T00:54:37;3.05;;;1.42;;
59074;SDS011;44860;53.020;6.738;2023-04-03T00:57:05;2.83;;;1.25;;
59074;SDS011;44860;53.020;6.738;2023-04-03T00:59:32;3.83;;;1.63;;
59074;SDS011;44860;53.020;6.738;2023-04-03T01:02:03;4.05;;;1.35;;
59074;SDS011;44860;53.020;6.738;2023-04-03T01:06:57;3.35;;;1.73;;
59074;SDS011;44860;53.020;6.738;2023-04-03T01:09:26;3.40;;;1.50;;
59074;SDS011;44860;53.020;6.738;2023-04-03T01:11:53;3.00;;;1.45;;
59074;SDS011;44860;53.020;6.738;2023-04-03T01:14:19;3.38;;;1.60;;
59074;SDS011;44860;53.020;6.738;2023-04-03T01:16:52;5.47;;;1.60;;
59074;SDS011;44860;53.020;6.738;2023-04-03T01:24:33;3.13;;;1.63;;
59074;SDS011;44860;53.020;6.738;2023-04-03T01:27:01;6.63;;;1.63;;
59074;SDS011;44860;53.020;6.738;2023-04-03T01:29:29;4.47;;;2.00;;
59074;SDS011;44860;53.020;6.738;2023-04-03T01:31:58;6.40;;;1.85;;
59074;SDS011;44860;53.020;6.738;2023-04-03T01:34:26;5.47;;;1.90;;
59074;SDS011;44860;53.020;6.738;2023-04-03T01:36:53;6.65;;;1.90;;
59074;SDS011;44860;53.020;6.738;2023-04-03T01:39:19;4.85;;;1.73;;
59074;SDS011;44860;53.020;6.738;2023-04-03T01:41:46;5.53;;;1.83;;
59074;SDS011;44860;53.020;6.738;2023-04-03T01:44:12;5.80;;;2.03;;
59074;SDS011;44860;53.020;6.738;2023-04-03T01:46:38;4.22;;;1.50;;
59074;SDS011;44860;53.020;6.738;2023-04-03T01:49:04;4.68;;;1.83;;
59074;SDS011;44860;53.020;6.738;2023-04-03T01:51:31;6.22;;;1.90;;
59074;SDS011;44860;53.020;6.738;2023-04-03T01:53:58;6.03;;;1.60;;
59074;SDS011;44860;53.020;6.738;2023-04-03T01:56:23;4.00;;;1.85;;
59074;SDS011;44860;53.020;6.738;2023-04-03T01:58:50;5.38;;;2.22;;
59074;SDS011;44860;53.020;6.738;2023-04-03T02:01:16;6.38;;;1.88;;
59074;SDS011;44860;53.020;6.738;2023-04-03T02:03:41;3.55;;;1.73;;
59074;SDS011;44860;53.020;6.738;2023-04-03T02:06:07;5.78;;;1.80;;
59074;SDS011;44860;53.020;6.738;2023-04-03T02:08:36;5.95;;;2.15;;
59074;SDS011;44860;53.020;6.738;2023-04-03T02:11:01;5.25;;;2.03;;
59074;SDS011;44860;53.020;6.738;2023-04-03T02:13:27;7.15;;;1.73;;
59074;SDS011;44860;53.020;6.738;2023-04-03T02:15:53;6.63;;;3.00;;
59074;SDS011;44860;53.020;6.738;2023-04-03T02:18:18;5.72;;;2.00;;
59074;SDS011;44860;53.020;6.738;2023-04-03T02:20:44;5.30;;;1.80;;
59074;SDS011;44860;53.020;6.738;2023-04-03T02:23:11;5.30;;;2.05;;
59074;SDS011;44860;53.020;6.738;2023-04-03T02:25:37;4.22;;;1.75;;
59074;SDS011;44860;53.020;6.738;2023-04-03T02:28:03;5.78;;;1.85;;
59074;SDS011;44860;53.020;6.738;2023-04-03T02:30:28;4.10;;;1.75;;
59074;SDS011;44860;53.020;6.738;2023-04-03T02:32:54;7.50;;;1.98;;
59074;SDS011;44860;53.020;6.738;2023-04-03T02:35:20;3.58;;;1.90;;
59074;SDS011;44860;53.020;6.738;2023-04-03T02:37:46;4.32;;;1.80;;
59074;SDS011;44860;53.020;6.738;2023-04-03T02:40:12;7.03;;;2.10;;
59074;SDS011;44860;53.020;6.738;2023-04-03T02:42:37;3.95;;;1.90;;
59074;SDS011;44860;53.020;6.738;2023-04-03T02:45:03;6.28;;;1.98;;
59074;SDS011;44860;53.020;6.738;2023-04-03T02:47:30;4.70;;;2.17;;
59074;SDS011;44860;53.020;6.738;2023-04-03T02:49:55;5.32;;;1.92;;
59074;SDS011;44860;53.020;6.738;2023-04-03T02:52:21;6.13;;;2.30;;
59074;SDS011;44860;53.020;6.738;2023-04-03T02:54:47;6.90;;;1.92;;
59074;SDS011;44860;53.020;6.738;2023-04-03T02:57:12;6.32;;;2.20;;
59074;SDS011;44860;53.020;6.738;2023-04-03T02:59:38;5.53;;;1.80;;
59074;SDS011;44860;53.020;6.738;2023-04-03T03:02:06;5.50;;;1.80;;
59074;SDS011;44860;53.020;6.738;2023-04-03T03:04:36;5.97;;;2.10;;
59074;SDS011;44860;53.020;6.738;2023-04-03T03:07:02;5.03;;;2.53;;
59074;SDS011;44860;53.020;6.738;2023-04-03T03:09:28;5.10;;;2.00;;
59074;SDS011;44860;53.020;6.738;2023-04-03T03:11:54;3.22;;;1.80;;
59074;SDS011;44860;53.020;6.738;2023-04-03T03:14:20;4.80;;;2.20;;
59074;SDS011;44860;53.020;6.738;2023-04-03T03:16:46;7.30;;;2.00;;
59074;SDS011;44860;53.020;6.738;2023-04-03T03:19:12;4.18;;;2.00;;
59074;SDS011;44860;53.020;6.738;2023-04-03T03:21:38;7.07;;;2.00;;
59074;SDS011;44860;53.020;6.738;2023-04-03T03:24:03;4.78;;;1.77;;
59074;SDS011;44860;53.020;6.738;2023-04-03T03:26:30;5.68;;;2.28;;
59074;SDS011;44860;53.020;6.738;2023-04-03T03:28:55;4.63;;;2.00;;
59074;SDS011;44860;53.020;6.738;2023-04-03T03:31:21;6.15;;;2.13;;
59074;SDS011;44860;53.020;6.738;2023-04-03T03:33:47;6.35;;;2.20;;
59074;SDS011;44860;53.020;6.738;2023-04-03T03:36:12;4.55;;;2.15;;
59074;SDS011;44860;53.020;6.738;2023-04-03T03:38:38;5.70;;;2.10;;
59074;SDS011;44860;53.020;6.738;2023-04-03T03:41:04;4.72;;;2.00;;
59074;SDS011;44860;53.020;6.738;2023-04-03T03:43:30;9.05;;;2.58;;
59074;SDS011;44860;53.020;6.738;2023-04-03T03:45:56;5.70;;;2.22;;
59074;SDS011;44860;53.020;6.738;2023-04-03T03:48:21;6.90;;;2.30;;
59074;SDS011;44860;53.020;6.738;2023-04-03T03:50:47;5.63;;;2.13;;
59074;SDS011;44860;53.020;6.738;2023-04-03T03:53:14;5.60;;;2.20;;
59074;SDS011;44860;53.020;6.738;2023-04-03T03:55:40;7.18;;;2.53;;
59074;SDS011;44860;53.020;6.738;2023-04-03T03:58:06;6.80;;;2.28;;
59074;SDS011;44860;53.020;6.738;2023-04-03T04:00:31;7.32;;;2.53;;
59074;SDS011;44860;53.020;6.738;2023-04-03T04:02:57;7.68;;;2.30;;
59074;SDS011;44860;53.020;6.738;2023-04-03T04:05:23;5.35;;;2.30;;
59074;SDS011;44860;53.020;6.738;2023-04-03T04:07:48;7.20;;;2.42;;
59074;SDS011;44860;53.020;6.738;2023-04-03T04:10:14;5.63;;;2.42;;
59074;SDS011;44860;53.020;6.738;2023-04-03T04:12:40;8.43;;;2.67;;
59074;SDS011;44860;53.020;6.738;2023-04-03T04:15:05;7.88;;;2.88;;
59074;SDS011;44860;53.020;6.738;2023-04-03T04:17:32;5.68;;;2.30;;
59074;SDS011;44860;53.020;6.738;2023-04-03T04:19:57;6.13;;;2.63;;
59074;SDS011;44860;53.020;6.738;2023-04-03T04:22:23;5.93;;;2.50;;
59074;SDS011;44860;53.020;6.738;2023-04-03T04:24:48;7.10;;;2.33;;
59074;SDS011;44860;53.020;6.738;2023-04-03T04:27:14;5.53;;;2.80;;
59074;SDS011;44860;53.020;6.738;2023-04-03T04:29:41;7.85;;;2.95;;
59074;SDS011;44860;53.020;6.738;2023-04-03T04:32:06;6.03;;;2.70;;
59074;SDS011;44860;53.020;6.738;2023-04-03T04:34:33;6.97;;;2.80;;
59074;SDS011;44860;53.020;6.738;2023-04-03T04:36:59;6.68;;;2.60;;
59074;SDS011;44860;53.020;6.738;2023-04-03T04:39:25;8.40;;;2.75;;
59074;SDS011;44860;53.020;6.738;2023-04-03T04:41:51;6.68;;;2.70;;
59074;SDS011;44860;53.020;6.738;2023-04-03T04:44:17;7.20;;;3.03;;
59074;SDS011;44860;53.020;6.738;2023-04-03T04:46:42;7.32;;;3.10;;
59074;SDS011;44860;53.020;6.738;2023-04-03T04:49:08;8.05;;;2.60;;
59074;SDS011;44860;53.020;6.738;2023-04-03T04:51:34;7.38;;;2.80;;
59074;SDS011;44860;53.020;6.738;2023-04-03T04:53:59;10.05;;;3.20;;
59074;SDS011;44860;53.020;6.738;2023-04-03T04:56:25;8.32;;;3.25;;
59074;SDS011;44860;53.020;6.738;2023-04-03T04:58:51;8.32;;;2.90;;
59074;SDS011;44860;53.020;6.738;2023-04-03T05:01:16;9.82;;;3.45;;
59074;SDS011;44860;53.020;6.738;2023-04-03T05:03:43;7.28;;;3.67;;
59074;SDS011;44860;53.020;6.738;2023-04-03T05:06:09;8.98;;;4.43;;
59074;SDS011;44860;53.020;6.738;2023-04-03T05:08:35;10.57;;;5.22;;
59074;SDS011;44860;53.020;6.738;2023-04-03T05:11:01;12.15;;;4.88;;
59074;SDS011;44860;53.020;6.738;2023-04-03T05:13:26;7.93;;;4.22;;
59074;SDS011;44860;53.020;6.738;2023-04-03T05:15:52;8.00;;;3.85;;
59074;SDS011;44860;53.020;6.738;2023-04-03T05:18:18;7.57;;;3.70;;
59074;SDS011;44860;53.020;6.738;2023-04-03T05:20:43;8.23;;;4.20;;
59074;SDS011;44860;53.020;6.738;2023-04-03T05:23:09;10.65;;;4.32;;
59074;SDS011;44860;53.020;6.738;2023-04-03T05:25:39;9.38;;;3.53;;
59074;SDS011;44860;53.020;6.738;2023-04-03T05:28:05;7.13;;;3.60;;
59074;SDS011;44860;53.020;6.738;2023-04-03T05:30:31;11.25;;;4.05;;
59074;SDS011;44860;53.020;6.738;2023-04-03T05:32:58;9.23;;;3.70;;
59074;SDS011;44860;53.020;6.738;2023-04-03T05:35:24;9.82;;;3.67;;
59074;SDS011;44860;53.020;6.738;2023-04-03T05:37:50;7.75;;;3.90;;
59074;SDS011;44860;53.020;6.738;2023-04-03T05:40:15;9.85;;;3.90;;
59074;SDS011;44860;53.020;6.738;2023-04-03T05:42:41;8.07;;;3.97;;
59074;SDS011;44860;53.020;6.738;2023-04-03T05:45:07;9.45;;;3.95;;
59074;SDS011;44860;53.020;6.738;2023-04-03T05:47:35;10.63;;;4.43;;
59074;SDS011;44860;53.020;6.738;2023-04-03T05:50:01;9.27;;;4.15;;
59074;SDS011;44860;53.020;6.738;2023-04-03T05:52:28;9.07;;;4.00;;
59074;SDS011;44860;53.020;6.738;2023-04-03T05:54:57;12.25;;;4.45;;
59074;SDS011;44860;53.020;6.738;2023-04-03T05:57:23;9.38;;;4.00;;
59074;SDS011;44860;53.020;6.738;2023-04-03T05:59:49;6.95;;;3.80;;
59074;SDS011;44860;53.020;6.738;2023-04-03T06:02:16;9.35;;;4.13;;
59074;SDS011;44860;53.020;6.738;2023-04-03T06:04:44;9.38;;;3.92;;
59074;SDS011;44860;53.020;6.738;2023-04-03T06:07:14;11.20;;;4.40;;
59074;SDS011;44860;53.020;6.738;2023-04-03T06:09:42;8.32;;;3.78;;
59074;SDS011;44860;53.020;6.738;2023-04-03T06:12:08;10.68;;;3.80;;
59074;SDS011;44860;53.020;6.738;2023-04-03T06:14:35;8.82;;;4.05;;
59074;SDS011;44860;53.020;6.738;2023-04-03T06:17:01;9.75;;;3.95;;
59074;SDS011;44860;53.020;6.738;2023-04-03T06:19:27;11.45;;;3.80;;
59074;SDS011;44860;53.020;6.738;2023-04-03T06:21:53;9.65;;;3.80;;
59074;SDS011;44860;53.020;6.738;2023-04-03T06:24:19;10.65;;;4.00;;
59074;SDS011;44860;53.020;6.738;2023-04-03T06:26:47;9.45;;;3.50;;
59074;SDS011;44860;53.020;6.738;2023-04-03T06:29:12;8.95;;;4.13;;
59074;SDS011;44860;53.020;6.738;2023-04-03T06:31:38;9.85;;;3.85;;
59074;SDS011;44860;53.020;6.738;2023-04-03T06:34:04;9.70;;;3.90;;
59074;SDS011;44860;53.020;6.738;2023-04-03T06:36:32;10.43;;;4.07;;
59074;SDS011;44860;53.020;6.738;2023-04-03T06:38:59;10.40;;;3.90;;
59074;SDS011;44860;53.020;6.738;2023-04-03T06:41:25;9.23;;;3.22;;
59074;SDS011;44860;53.020;6.738;2023-04-03T06:43:51;10.63;;;3.88;;
59074;SDS011;44860;53.020;6.738;2023-04-03T06:46:18;11.60;;;3.85;;
59074;SDS011;44860;53.020;6.738;2023-04-03T06:48:46;9.38;;;4.07;;
59074;SDS011;44860;53.020;6.738;2023-04-03T06:53:46;9.15;;;3.90;;
59074;SDS011;44860;53.020;6.738;2023-04-03T06:56:12;8.35;;;3.92;;
59074;SDS011;44860;53.020;6.738;2023-04-03T06:58:39;6.78;;;3.75;;
59074;SDS011;44860;53.020;6.738;2023-04-03T07:01:05;7.78;;;3.90;;
59074;SDS011;44860;53.020;6.738;2023-04-03T07:03:31;9.00;;;3.60;;
59074;SDS011;44860;53.020;6.738;2023-04-03T07:05:57;8.27;;;3.42;;
59074;SDS011;44860;53.020;6.738;2023-04-03T07:08:22;9.65;;;3.83;;
59074;SDS011;44860;53.020;6.738;2023-04-03T07:10:48;7.38;;;3.45;;
59074;SDS011;44860;53.020;6.738;2023-04-03T07:13:15;9.20;;;3.55;;
59074;SDS011;44860;53.020;6.738;2023-04-03T07:15:41;8.55;;;4.07;;
59074;SDS011;44860;53.020;6.738;2023-04-03T07:18:06;11.82;;;3.95;;
59074;SDS011;44860;53.020;6.738;2023-04-03T07:20:32;8.63;;;3.60;;
59074;SDS011;44860;53.020;6.738;2023-04-03T07:22:58;9.45;;;3.58;;
59074;SDS011;44860;53.020;6.738;2023-04-03T07:25:24;7.78;;;3.90;;
59074;SDS011;44860;53.020;6.738;2023-04-03T07:27:50;10.80;;;4.10;;
59074;SDS011;44860;53.020;6.738;2023-04-03T07:30:16;8.52;;;3.70;;
59074;SDS011;44860;53.020;6.738;2023-04-03T07:32:41;8.00;;;3.50;;
59074;SDS011;44860;53.020;6.738;2023-04-03T07:35:07;8.43;;;3.10;;
59074;SDS011;44860;53.020;6.738;2023-04-03T07:37:33;11.48;;;3.85;;
59074;SDS011;44860;53.020;6.738;2023-04-03T07:39:59;10.30;;;4.10;;
59074;SDS011;44860;53.020;6.738;2023-04-03T07:42:26;7.93;;;3.70;;
59074;SDS011;44860;53.020;6.738;2023-04-03T07:44:53;7.65;;;3.53;;
59074;SDS011;44860;53.020;6.738;2023-04-03T07:47:19;8.32;;;3.60;;
59074;SDS011;44860;53.020;6.738;2023-04-03T07:49:46;9.43;;;3.28;;
59074;SDS011;44860;53.020;6.738;2023-04-03T07:52:12;8.50;;;3.20;;
59074;SDS011;44860;53.020;6.738;2023-04-03T07:54:39;8.05;;;2.92;;
59074;SDS011;44860;53.020;6.738;2023-04-03T07:57:05;5.82;;;2.58;;
59074;SDS011;44860;53.020;6.738;2023-04-03T07:59:31;8.32;;;2.72;;
59074;SDS011;44860;53.020;6.738;2023-04-03T08:01:57;7.95;;;2.75;;
59074;SDS011;44860;53.020;6.738;2023-04-03T08:04:23;6.70;;;2.67;;
59074;SDS011;44860;53.020;6.738;2023-04-03T08:06:49;5.45;;;2.40;;
59074;SDS011;44860;53.020;6.738;2023-04-03T08:09:16;7.10;;;2.55;;
59074;SDS011;44860;53.020;6.738;2023-04-03T08:11:41;6.82;;;2.72;;
59074;SDS011;44860;53.020;6.738;2023-04-03T08:14:07;9.13;;;3.00;;
59074;SDS011;44860;53.020;6.738;2023-04-03T08:16:33;6.10;;;2.65;;
59074;SDS011;44860;53.020;6.738;2023-04-03T08:18:58;5.45;;;2.80;;
59074;SDS011;44860;53.020;6.738;2023-04-03T08:21:24;7.80;;;2.70;;
59074;SDS011;44860;53.020;6.738;2023-04-03T08:23:51;6.47;;;2.38;;
59074;SDS011;44860;53.020;6.738;2023-04-03T08:26:18;6.85;;;2.28;;
59074;SDS011;44860;53.020;6.738;2023-04-03T08:28:46;9.23;;;2.20;;
59074;SDS011;44860;53.020;6.738;2023-04-03T08:31:14;5.75;;;2.20;;
59074;SDS011;44860;53.020;6.738;2023-04-03T08:33:42;7.43;;;2.35;;
59074;SDS011;44860;53.020;6.738;2023-04-03T08:36:15;5.20;;;2.10;;
59074;SDS011;44860;53.020;6.738;2023-04-03T08:38:42;4.60;;;1.80;;
59074;SDS011;44860;53.020;6.738;2023-04-03T08:49:39;5.53;;;1.80;;
59074;SDS011;44860;53.020;6.738;2023-04-03T08:54:55;5.55;;;1.75;;
59074;SDS011;44860;53.020;6.738;2023-04-03T08:57:32;7.30;;;2.22;;
59074;SDS011;44860;53.020;6.738;2023-04-03T09:00:03;5.07;;;1.80;;
59074;SDS011;44860;53.020;6.738;2023-04-03T09:02:52;4.53;;;1.80;;
59074;SDS011;44860;53.020;6.738;2023-04-03T09:10:48;5.45;;;1.67;;
59074;SDS011;44860;53.020;6.738;2023-04-03T09:16:04;5.50;;;1.90;;
59074;SDS011;44860;53.020;6.738;2023-04-03T09:18:45;5.20;;;1.80;;
59074;SDS011;44860;53.020;6.738;2023-04-03T09:21:24;4.78;;;1.70;;
59074;SDS011;44860;53.020;6.738;2023-04-03T09:23:58;3.97;;;1.67;;
59074;SDS011;44860;53.020;6.738;2023-04-03T09:26:26;4.07;;;1.63;;
59074;SDS011;44860;53.020;6.738;2023-04-03T09:28:56;4.28;;;1.45;;
59074;SDS011;44860;53.020;6.738;2023-04-03T09:31:26;3.40;;;1.52;;
59074;SDS011;44860;53.020;6.738;2023-04-03T09:33:59;3.67;;;1.48;;
59074;SDS011;44860;53.020;6.738;2023-04-03T09:39:54;4.88;;;1.50;;
59074;SDS011;44860;53.020;6.738;2023-04-03T09:42:22;5.15;;;1.60;;
59074;SDS011;44860;53.020;6.738;2023-04-03T09:44:56;5.10;;;1.70;;
59074;SDS011;44860;53.020;6.738;2023-04-03T09:47:25;4.63;;;1.38;;
59074;SDS011;44860;53.020;6.738;2023-04-03T09:52:38;2.13;;;1.17;;
59074;SDS011;44860;53.020;6.738;2023-04-03T09:55:15;4.43;;;1.40;;
59074;SDS011;44860;53.020;6.738;2023-04-03T09:57:46;4.82;;;1.38;;
59074;SDS011;44860;53.020;6.738;2023-04-03T10:00:25;4.32;;;1.10;;
59074;SDS011;44860;53.020;6.738;2023-04-03T10:03:01;4.82;;;1.65;;
59074;SDS011;44860;53.020;6.738;2023-04-03T10:05:29;2.20;;;1.27;;
59074;SDS011;44860;53.020;6.738;2023-04-03T10:08:11;3.15;;;1.10;;
59074;SDS011;44860;53.020;6.738;2023-04-03T10:10:46;3.10;;;1.05;;
59074;SDS011;44860;53.020;6.738;2023-04-03T10:13:17;3.25;;;1.20;;
59074;SDS011;44860;53.020;6.738;2023-04-03T10:15:48;4.18;;;1.50;;
59074;SDS011;44860;53.020;6.738;2023-04-03T10:21:11;5.18;;;1.33;;
59074;SDS011;44860;53.020;6.738;2023-04-03T10:23:46;4.53;;;1.33;;
59074;SDS011;44860;53.020;6.738;2023-04-03T10:35:02;4.43;;;1.38;;
59074;SDS011;44860;53.020;6.738;2023-04-03T10:40:15;2.60;;;1.38;;
59074;SDS011;44860;53.020;6.738;2023-04-03T10:42:59;3.40;;;1.42;;
59074;SDS011;44860;53.020;6.738;2023-04-03T10:45:57;4.00;;;1.40;;
59074;SDS011;44860;53.020;6.738;2023-04-03T10:51:16;2.38;;;1.35;;
59074;SDS011;44860;53.020;6.738;2023-04-03T10:57:03;3.05;;;1.23;;
59074;SDS011;44860;53.020;6.738;2023-04-03T10:59:44;2.50;;;1.13;;
59074;SDS011;44860;53.020;6.738;2023-04-03T11:04:50;2.45;;;1.30;;
59074;SDS011;44860;53.020;6.738;2023-04-03T11:07:20;2.65;;;0.95;;
59074;SDS011;44860;53.020;6.738;2023-04-03T11:09:51;2.60;;;1.20;;
59074;SDS011;44860;53.020;6.738;2023-04-03T11:15:26;1.20;;;1.00;;
59074;SDS011;44860;53.020;6.738;2023-04-03T11:18:14;2.45;;;1.08;;
59074;SDS011;44860;53.020;6.738;2023-04-03T11:21:39;3.03;;;1.30;;
59074;SDS011;44860;53.020;6.738;2023-04-03T11:23:41;3.17;;;1.35;;
59074;SDS011;44860;53.020;6.738;2023-04-03T11:26:14;3.42;;;1.48;;
59074;SDS011;44860;53.020;6.738;2023-04-03T11:28:45;3.42;;;1.25;;
59074;SDS011;44860;53.020;6.738;2023-04-03T11:36:41;3.17;;;1.52;;
59074;SDS011;44860;53.020;6.738;2023-04-03T11:39:19;4.57;;;1.23;;
59074;SDS011;44860;53.020;6.738;2023-04-03T11:41:50;3.70;;;1.50;;
59074;SDS011;44860;53.020;6.738;2023-04-03T11:46:58;3.67;;;1.60;;
59074;SDS011;44860;53.020;6.738;2023-04-03T12:05:53;4.72;;;1.52;;
59074;SDS011;44860;53.020;6.738;2023-04-03T12:19:03;4.28;;;1.65;;
59074;SDS011;44860;53.020;6.738;2023-04-03T12:35:03;5.28;;;1.60;;
59074;SDS011;44860;53.020;6.738;2023-04-03T12:46:21;3.45;;;1.55;;
59074;SDS011;44860;53.020;6.738;2023-04-03T12:54:00;4.50;;;1.90;;
59074;SDS011;44860;53.020;6.738;2023-04-03T12:56:31;7.40;;;2.20;;
59074;SDS011;44860;53.020;6.738;2023-04-03T13:01:56;5.45;;;1.90;;
59074;SDS011;44860;53.020;6.738;2023-04-03T13:04:30;4.57;;;1.80;;
59074;SDS011;44860;53.020;6.738;2023-04-03T13:06:56;5.10;;;1.80;;
59074;SDS011;44860;53.020;6.738;2023-04-03T13:09:27;4.40;;;1.80;;
59074;SDS011;44860;53.020;6.738;2023-04-03T13:11:56;4.65;;;1.60;;
59074;SDS011;44860;53.020;6.738;2023-04-03T13:14:28;3.13;;;1.45;;
59074;SDS011;44860;53.020;6.738;2023-04-03T13:16:59;3.28;;;1.67;;
59074;SDS011;44860;53.020;6.738;2023-04-03T13:19:29;2.67;;;1.63;;
59074;SDS011;44860;53.020;6.738;2023-04-03T13:22:02;4.38;;;1.90;;
59074;SDS011;44860;53.020;6.738;2023-04-03T13:24:33;3.65;;;1.50;;
59074;SDS011;44860;53.020;6.738;2023-04-03T13:27:01;6.32;;;1.60;;
59074;SDS011;44860;53.020;6.738;2023-04-03T13:29:29;3.10;;;1.50;;
59074;SDS011;44860;53.020;6.738;2023-04-03T13:31:58;3.63;;;1.65;;
59074;SDS011;44860;53.020;6.738;2023-04-03T13:34:27;5.28;;;1.80;;
59074;SDS011;44860;53.020;6.738;2023-04-03T13:36:58;3.92;;;1.52;;
59074;SDS011;44860;53.020;6.738;2023-04-03T13:39:27;3.45;;;1.50;;
59074;SDS011;44860;53.020;6.738;2023-04-03T13:41:55;3.95;;;1.40;;
59074;SDS011;44860;53.020;6.738;2023-04-03T13:44:34;2.63;;;1.52;;
59074;SDS011;44860;53.020;6.738;2023-04-03T13:47:14;5.53;;;1.67;;
59074;SDS011;44860;53.020;6.738;2023-04-03T13:49:46;4.32;;;1.40;;
59074;SDS011;44860;53.020;6.738;2023-04-03T13:52:52;4.10;;;1.70;;
59074;SDS011;44860;53.020;6.738;2023-04-03T13:58:01;2.08;;;1.50;;
59074;SDS011;44860;53.020;6.738;2023-04-03T14:00:37;4.60;;;1.80;;
59074;SDS011;44860;53.020;6.738;2023-04-03T14:03:25;3.92;;;1.60;;
59074;SDS011;44860;53.020;6.738;2023-04-03T14:05:52;4.32;;;1.73;;
59074;SDS011;44860;53.020;6.738;2023-04-03T14:08:18;4.95;;;1.50;;
59074;SDS011;44860;53.020;6.738;2023-04-03T14:10:44;3.47;;;1.60;;
59074;SDS011;44860;53.020;6.738;2023-04-03T14:13:15;26.25;;;23.92;;
59074;SDS011;44860;53.020;6.738;2023-04-03T14:15:43;4.90;;;2.40;;
59074;SDS011;44860;53.020;6.738;2023-04-03T14:18:11;2.85;;;1.73;;
59074;SDS011;44860;53.020;6.738;2023-04-03T14:20:38;3.28;;;1.60;;
59074;SDS011;44860;53.020;6.738;2023-04-03T14:23:04;3.33;;;1.55;;
59074;SDS011;44860;53.020;6.738;2023-04-03T14:25:31;2.85;;;1.60;;
59074;SDS011;44860;53.020;6.738;2023-04-03T14:27:57;2.75;;;1.48;;
59074;SDS011;44860;53.020;6.738;2023-04-03T14:30:27;2.90;;;1.40;;
59074;SDS011;44860;53.020;6.738;2023-04-03T14:32:57;1.98;;;1.30;;
59074;SDS011;44860;53.020;6.738;2023-04-03T14:35:24;2.92;;;1.48;;
59074;SDS011;44860;53.020;6.738;2023-04-03T14:37:51;2.25;;;1.30;;
59074;SDS011;44860;53.020;6.738;2023-04-03T14:40:19;3.33;;;1.55;;
59074;SDS011;44860;53.020;6.738;2023-04-03T14:42:49;3.30;;;1.40;;
59074;SDS011;44860;53.020;6.738;2023-04-03T14:45:16;2.95;;;1.60;;
59074;SDS011;44860;53.020;6.738;2023-04-03T14:47:50;3.50;;;1.33;;
59074;SDS011;44860;53.020;6.738;2023-04-03T14:50:19;3.88;;;1.40;;
59074;SDS011;44860;53.020;6.738;2023-04-03T14:52:50;2.83;;;1.50;;
59074;SDS011;44860;53.020;6.738;2023-04-03T14:55:19;3.35;;;1.50;;
59074;SDS011;44860;53.020;6.738;2023-04-03T14:57:46;3.42;;;1.60;;
59074;SDS011;44860;53.020;6.738;2023-04-03T15:00:17;3.47;;;1.67;;
59074;SDS011;44860;53.020;6.738;2023-04-03T15:02:44;6.72;;;2.35;;
59074;SDS011;44860;53.020;6.738;2023-04-03T15:05:10;3.20;;;1.20;;
59074;SDS011;44860;53.020;6.738;2023-04-03T15:07:39;1.90;;;1.25;;
59074;SDS011;44860;53.020;6.738;2023-04-03T15:10:23;3.95;;;1.63;;
59074;SDS011;44860;53.020;6.738;2023-04-03T15:12:51;2.67;;;1.40;;
59074;SDS011;44860;53.020;6.738;2023-04-03T15:15:18;2.78;;;1.23;;
59074;SDS011;44860;53.020;6.738;2023-04-03T15:17:45;3.78;;;1.23;;
59074;SDS011;44860;53.020;6.738;2023-04-03T15:20:14;3.08;;;1.10;;
59074;SDS011;44860;53.020;6.738;2023-04-03T15:22:41;3.55;;;1.27;;
59074;SDS011;44860;53.020;6.738;2023-04-03T15:25:07;2.10;;;1.00;;
59074;SDS011;44860;53.020;6.738;2023-04-03T15:27:33;2.20;;;1.40;;
59074;SDS011;44860;53.020;6.738;2023-04-03T15:29:59;2.67;;;1.42;;
59074;SDS011;44860;53.020;6.738;2023-04-03T15:32:25;3.38;;;1.40;;
59074;SDS011;44860;53.020;6.738;2023-04-03T15:34:51;3.05;;;1.63;;
59074;SDS011;44860;53.020;6.738;2023-04-03T15:37:18;3.47;;;2.03;;
59074;SDS011;44860;53.020;6.738;2023-04-03T15:39:44;5.35;;;3.03;;
59074;SDS011;44860;53.020;6.738;2023-04-03T15:42:09;3.60;;;1.75;;
59074;SDS011;44860;53.020;6.738;2023-04-03T15:44:37;3.53;;;1.58;;
59074;SDS011;44860;53.020;6.738;2023-04-03T15:47:03;4.15;;;1.40;;
59074;SDS011;44860;53.020;6.738;2023-04-03T15:49:29;4.53;;;1.48;;
59074;SDS011;44860;53.020;6.738;2023-04-03T15:51:57;2.22;;;1.25;;
59074;SDS011;44860;53.020;6.738;2023-04-03T15:54:23;2.88;;;1.40;;
59074;SDS011;44860;53.020;6.738;2023-04-03T15:56:50;3.00;;;1.60;;
59074;SDS011;44860;53.020;6.738;2023-04-03T15:59:16;4.35;;;2.03;;
59074;SDS011;44860;53.020;6.738;2023-04-03T16:01:42;5.05;;;3.40;;
59074;SDS011;44860;53.020;6.738;2023-04-03T16:04:08;3.22;;;1.55;;
59074;SDS011;44860;53.020;6.738;2023-04-03T16:06:35;2.92;;;1.60;;
59074;SDS011;44860;53.020;6.738;2023-04-03T16:09:01;3.28;;;1.50;;
59074;SDS011;44860;53.020;6.738;2023-04-03T16:11:28;3.05;;;1.50;;
59074;SDS011;44860;53.020;6.738;2023-04-03T16:13:54;2.55;;;1.20;;
59074;SDS011;44860;53.020;6.738;2023-04-03T16:16:20;2.13;;;1.23;;
59074;SDS011;44860;53.020;6.738;2023-04-03T16:18:46;4.28;;;1.55;;
59074;SDS011;44860;53.020;6.738;2023-04-03T16:21:13;3.95;;;1.48;;
59074;SDS011;44860;53.020;6.738;2023-04-03T16:23:40;2.90;;;1.40;;
59074;SDS011;44860;53.020;6.738;2023-04-03T16:26:06;3.53;;;1.38;;
59074;SDS011;44860;53.020;6.738;2023-04-03T16:28:33;4.18;;;1.77;;
59074;SDS011;44860;53.020;6.738;2023-04-03T16:30:59;2.30;;;1.23;;
59074;SDS011;44860;53.020;6.738;2023-04-03T16:33:26;8.60;;;4.88;;
59074;SDS011;44860;53.020;6.738;2023-04-03T16:35:52;3.88;;;1.60;;
59074;SDS011;44860;53.020;6.738;2023-04-03T16:38:18;3.45;;;1.90;;
59074;SDS011;44860;53.020;6.738;2023-04-03T16:40:44;3.35;;;1.42;;
59074;SDS011;44860;53.020;6.738;2023-04-03T16:43:10;1.90;;;1.23;;
59074;SDS011;44860;53.020;6.738;2023-04-03T16:45:36;2.92;;;1.40;;
59074;SDS011;44860;53.020;6.738;2023-04-03T16:48:02;1.83;;;1.20;;
59074;SDS011;44860;53.020;6.738;2023-04-03T16:50:28;3.42;;;1.40;;
59074;SDS011;44860;53.020;6.738;2023-04-03T16:52:54;2.95;;;1.40;;
59074;SDS011;44860;53.020;6.738;2023-04-03T16:55:20;3.05;;;1.30;;
59074;SDS011;44860;53.020;6.738;2023-04-03T16:57:46;2.30;;;1.15;;
59074;SDS011;44860;53.020;6.738;2023-04-03T17:00:12;2.75;;;1.40;;
59074;SDS011;44860;53.020;6.738;2023-04-03T17:02:38;4.95;;;1.98;;
59074;SDS011;44860;53.020;6.738;2023-04-03T17:05:05;4.43;;;1.50;;